TimeCDT,TemperatureF,Dew PointF,Humidity,Sea Level PressureIn,VisibilityMPH,Wind Direction,Wind SpeedMPH,Gust SpeedMPH,PrecipitationIn,Events,Conditions,WindDirDegrees,DateUTC
12:56 AM,55.0,48.0,77,30.09,10.0,North,8.1,-,N/A,,Scattered Clouds,10,2012-10-08 05:56:00
1:56 AM,54.0,48.0,80,30.08,10.0,North,9.2,-,N/A,,Scattered Clouds,10,2012-10-08 06:56:00
2:56 AM,53.1,46.9,80,30.06,10.0,North,6.9,-,N/A,,Partly Cloudy,10,2012-10-08 07:56:00
3:56 AM,52.0,46.9,83,30.06,10.0,North,4.6,-,N/A,,Partly Cloudy,10,2012-10-08 08:56:00
4:56 AM,52.0,46.9,83,30.06,10.0,North,3.5,-,N/A,,Scattered Clouds,350,2012-10-08 09:56:00
5:56 AM,51.1,46.9,86,30.08,10.0,North,6.9,-,N/A,,Scattered Clouds,350,2012-10-08 10:56:00
6:56 AM,52.0,46.0,80,30.10,10.0,North,6.9,-,N/A,,Mostly Cloudy,350,2012-10-08 11:56:00
7:56 AM,53.1,46.0,77,30.13,10.0,North,11.5,-,N/A,,Scattered Clouds,350,2012-10-08 12:56:00
8:56 AM,57.0,45.0,64,30.14,10.0,North,9.2,-,N/A,,Scattered Clouds,360,2012-10-08 13:56:00
9:56 AM,62.1,45.0,53,30.14,10.0,North,10.4,-,N/A,,Clear,350,2012-10-08 14:56:00
10:56 AM,66.0,46.9,50,30.14,10.0,North,12.7,-,N/A,,Clear,360,2012-10-08 15:56:00
11:56 AM,70.0,50.0,49,30.11,10.0,North,10.4,-,N/A,,Clear,10,2012-10-08 16:56:00
12:56 PM,72.0,51.1,48,30.09,10.0,North,10.4,18.4,N/A,,Clear,360,2012-10-08 17:56:00
1:56 PM,73.0,52.0,48,30.06,10.0,NNW,11.5,17.3,N/A,,Clear,330,2012-10-08 18:56:00
2:56 PM,75.0,53.1,46,30.05,10.0,North,12.7,-,N/A,,Clear,10,2012-10-08 19:56:00
3:56 PM,73.9,53.1,48,30.04,10.0,North,12.7,-,N/A,,Clear,350,2012-10-08 20:56:00
4:56 PM,72.0,53.1,51,30.05,10.0,North,9.2,-,N/A,,Clear,360,2012-10-08 21:56:00
5:56 PM,69.1,53.1,57,30.06,10.0,North,9.2,-,N/A,,Clear,360,2012-10-08 22:56:00
6:56 PM,64.0,52.0,65,30.08,10.0,North,10.4,-,N/A,,Clear,10,2012-10-08 23:56:00
7:56 PM,62.1,50.0,65,30.09,10.0,North,6.9,-,N/A,,Clear,10,2012-10-09 00:56:00
8:56 PM,60.1,50.0,69,30.11,10.0,NNE,6.9,-,N/A,,Clear,20,2012-10-09 01:56:00
9:56 PM,59.0,50.0,72,30.12,10.0,North,6.9,-,N/A,,Clear,360,2012-10-09 02:56:00
10:56 PM,57.0,50.0,77,30.12,10.0,North,6.9,-,N/A,,Clear,360,2012-10-09 03:56:00
11:56 PM,55.9,48.9,77,30.12,10.0,North,8.1,-,N/A,,Clear,360,2012-10-09 04:56:00